createdAt,value
2023-03-27T00:00:00.859Z,36.60
2023-03-27T00:10:01.930Z,37.60
2023-03-27T00:20:01.304Z,42.40
2023-03-27T00:30:01.540Z,42.30
2023-03-27T00:40:00.843Z,45.00
2023-03-27T00:50:01.083Z,54.50
2023-03-27T01:00:01.502Z,42.30
2023-03-27T01:10:01.080Z,31.70
2023-03-27T01:20:00.174Z,47.20
2023-03-27T01:30:01.311Z,61.80
2023-03-27T01:40:01.079Z,58.80
2023-03-27T01:50:01.040Z,43.20
2023-03-27T02:00:17.906Z,57.00
2023-03-27T02:10:00.178Z,49.50
2023-03-27T02:20:00.803Z,43.60
2023-03-27T02:30:01.275Z,29.10
2023-03-27T02:40:01.513Z,38.70
2023-03-27T02:50:01.875Z,36.80
2023-03-27T03:00:00.844Z,40.70
2023-03-27T03:10:01.403Z,41.40
2023-03-27T03:20:00.805Z,45.50
2023-03-27T03:30:00.900Z,42.10
2023-03-27T03:40:01.224Z,43.40
2023-03-27T03:50:02.703Z,28.60
2023-03-27T04:00:02.755Z,35.00
2023-03-27T04:10:01.039Z,34.20
2023-03-27T04:20:00.865Z,37.80
2023-03-27T04:30:01.037Z,29.80
2023-03-27T04:40:01.460Z,31.70
2023-03-27T04:50:01.271Z,44.40
2023-03-27T05:00:01.269Z,39.60
2023-03-27T05:10:01.236Z,53.80
2023-03-27T05:20:02.214Z,39.40
2023-03-27T05:30:00.878Z,37.80
2023-03-27T05:40:04.133Z,38.10
2023-03-27T05:50:01.017Z,21.00
2023-03-27T06:00:01.854Z,20.20
2023-03-27T06:10:01.903Z,26.80
2023-03-27T06:20:01.324Z,25.10
2023-03-27T06:30:00.885Z,30.70
2023-03-27T06:40:01.271Z,27.00
2023-03-27T06:50:01.032Z,38.40
2023-03-27T07:00:03.093Z,30.90
2023-03-27T07:10:01.446Z,29.50
2023-03-27T07:20:01.065Z,29.80
2023-03-27T07:30:01.160Z,25.10
2023-03-27T07:40:00.846Z,21.60
2023-03-27T07:50:00.841Z,34.00
2023-03-27T08:00:00.894Z,30.40
2023-03-27T08:10:01.038Z,49.10
2023-03-27T08:20:01.198Z,30.60
2023-03-27T08:30:01.304Z,29.40
2023-03-27T08:40:02.140Z,21.50
2023-03-27T08:50:01.092Z,35.40
2023-03-27T09:00:01.849Z,26.50
2023-03-27T09:10:00.990Z,38.20
2023-03-27T09:20:00.801Z,29.20
2023-03-27T09:30:05.214Z,53.80
2023-03-27T09:40:01.238Z,27.20
2023-03-27T09:50:01.233Z,18.90
2023-03-27T10:00:02.698Z,30.70
2023-03-27T10:10:00.840Z,24.60
2023-03-27T10:20:01.344Z,30.10
2023-03-27T10:30:01.540Z,34.90
2023-03-27T10:40:01.293Z,38.10
2023-03-27T10:50:01.098Z,46.70
2023-03-27T11:00:01.128Z,27.50
2023-03-27T11:10:02.043Z,54.70
2023-03-27T11:20:01.651Z,44.90
2023-03-27T11:30:01.041Z,102.60
2023-03-27T11:40:01.237Z,204.20
2023-03-27T11:50:01.006Z,734.00
2023-03-27T12:00:00.225Z,668.70
2023-03-27T12:10:00.821Z,700.20
2023-03-27T12:20:02.427Z,449.60
2023-03-27T12:30:01.023Z,123.40
2023-03-27T12:40:01.167Z,486.60
2023-03-27T12:50:01.041Z,592.60
2023-03-27T13:00:01.249Z,194.50
2023-03-27T13:10:01.076Z,124.90
2023-03-27T13:20:00.216Z,94.90
2023-03-27T13:30:02.552Z,78.60
2023-03-27T13:40:02.552Z,118.10
2023-03-27T13:50:02.722Z,101.70
2023-03-27T14:00:02.530Z,99.40
2023-03-27T14:10:03.689Z,86.70
2023-03-27T14:20:00.859Z,74.10
2023-03-27T14:30:00.195Z,68.70
2023-03-27T14:40:01.356Z,132.20
2023-03-27T14:50:01.022Z,127.90
2023-03-27T15:00:00.884Z,136.10
2023-03-27T15:10:02.862Z,104.10
2023-03-27T15:20:01.439Z,129.30
2023-03-27T15:30:00.967Z,104.60
2023-03-27T15:40:01.002Z,106.90
2023-03-27T15:50:02.130Z,94.70
2023-03-27T16:00:01.928Z,84.20
2023-03-27T16:10:00.881Z,81.10
2023-03-27T16:20:02.380Z,65.60
2023-03-27T16:30:01.471Z,56.20
2023-03-27T16:40:01.140Z,59.00
2023-03-27T16:50:11.172Z,60.60
2023-03-27T17:00:00.882Z,47.40
2023-03-27T17:10:03.195Z,52.90
2023-03-27T17:20:01.349Z,47.70
2023-03-27T17:30:01.546Z,58.60
2023-03-27T17:40:01.880Z,59.60
2023-03-27T17:50:01.306Z,132.10
2023-03-27T18:00:01.327Z,87.00
2023-03-27T18:10:00.865Z,102.60
2023-03-27T18:20:01.041Z,74.50
2023-03-27T18:30:01.031Z,84.10
2023-03-27T18:40:01.595Z,94.50
2023-03-27T18:50:01.332Z,71.70
2023-03-27T19:00:01.585Z,131.70
2023-03-27T19:10:00.821Z,87.00
2023-03-27T19:20:00.869Z,78.20
2023-03-27T19:30:01.292Z,58.90
2023-03-27T19:40:01.444Z,84.20
2023-03-27T19:50:02.066Z,74.30
2023-03-27T20:00:00.882Z,59.80
2023-03-27T20:10:01.137Z,76.90
2023-03-27T20:20:01.027Z,63.60
2023-03-27T20:30:01.534Z,55.70
2023-03-27T20:40:01.009Z,68.80
2023-03-27T20:50:01.444Z,69.00
2023-03-27T21:00:01.260Z,87.80
2023-03-27T21:10:01.253Z,80.40
2023-03-27T21:20:01.267Z,124.50
2023-03-27T21:30:02.417Z,94.00
2023-03-27T21:40:00.849Z,122.40
2023-03-27T21:50:01.074Z,115.00
2023-03-27T22:00:01.114Z,72.20
2023-03-27T22:10:01.197Z,71.00
2023-03-27T22:20:00.891Z,80.30
2023-03-27T22:30:00.798Z,74.40
2023-03-27T22:40:02.066Z,106.10
2023-03-27T22:50:00.193Z,104.30
2023-03-27T23:00:02.395Z,96.10
2023-03-27T23:10:01.039Z,80.40
2023-03-27T23:20:01.215Z,73.20
2023-03-27T23:30:01.551Z,93.00
2023-03-27T23:40:03.307Z,55.60
2023-03-27T23:50:00.996Z,54.00
